Time;durP1;ratioP1;P1;durP2;ratioP2;P2;SDS_P1;SDS_P2;PMS_P1;PMS_P2;Temp;Humidity;BMP_temperature;BMP_pressure;BME280_temperature;BME280_humidity;BME280_pressure;Samples;Min_cycle;Max_cycle;Signal;HPM_P1;HPM_P2
2022/01/20 00:01:08;;;;;;;15.95;2.60;;;;;;;6.51;100.00;102499.56;5082320;28;20067;-77
2022/01/20 00:03:36;;;;;;;20.25;2.83;;;;;;;6.34;100.00;102483.69;5079675;28;20428;-77
2022/01/20 00:27:55;;;;;;;18.15;3.70;;;;;;;6.49;100.00;102539.81;5084316;28;20089;-78
2022/01/20 00:30:41;;;;;;;19.13;2.85;;;;;;;6.50;100.00;102534.16;5081969;28;20024;-79
2022/01/20 00:38:22;;;;;;;17.10;3.50;;;;;;;6.37;100.00;102532.31;5085121;28;20120;-79
2022/01/20 00:40:48;;;;;;;20.17;3.88;;;;;;;6.31;100.00;102545.94;5090278;28;20310;-79
2022/01/20 00:43:14;;;;;;;22.92;3.50;;;;;;;5.57;100.00;102539.63;5090400;28;20043;-80
2022/01/20 00:45:39;;;;;;;13.43;3.08;;;;;;;5.44;100.00;102537.72;5098325;28;20232;-81
2022/01/20 00:48:05;;;;;;;17.35;4.28;;;;;;;5.43;100.00;102536.88;5072970;28;20043;-81
2022/01/20 00:50:38;;;;;;;21.67;3.13;;;;;;;5.61;100.00;102547.16;5090002;28;20435;-78
2022/01/20 00:53:03;;;;;;;16.85;3.10;;;;;;;5.55;100.00;102549.88;5089256;28;20347;-78
2022/01/20 00:55:29;;;;;;;19.83;3.03;;;;;;;5.51;100.00;102544.84;5098555;28;20028;-78
2022/01/20 00:57:54;;;;;;;20.55;3.35;;;;;;;5.67;100.00;102559.09;5091341;28;20027;-79
2022/01/20 01:00:20;;;;;;;29.17;3.97;;;;;;;5.71;100.00;102550.31;5089707;28;20377;-77
2022/01/20 01:02:46;;;;;;;17.75;3.50;;;;;;;5.92;100.00;102539.44;5085398;28;20431;-76
2022/01/20 01:05:13;;;;;;;16.35;3.15;;;;;;;5.99;100.00;102543.03;5093741;28;20032;-83
2022/01/20 01:10:05;;;;;;;12.98;2.65;;;;;;;5.83;100.00;102539.63;5091785;28;20043;-80
2022/01/20 01:12:43;;;;;;;6.78;1.92;;;;;;;6.00;100.00;102528.34;5090697;28;20039;-78
2022/01/20 01:15:16;;;;;;;13.48;1.98;;;;;;;5.96;100.00;102532.53;5073542;28;20513;-77
2022/01/20 01:20:27;;;;;;;5.03;1.50;;;;;;;6.22;100.00;102546.16;5094305;28;20027;-77
2022/01/20 01:22:53;;;;;;;12.85;1.70;;;;;;;5.97;100.00;102547.84;5108285;28;20027;-78
2022/01/20 01:25:19;;;;;;;12.55;2.33;;;;;;;5.97;100.00;102558.72;5093467;28;20104;-80
2022/01/20 01:27:45;;;;;;;9.75;1.90;;;;;;;5.93;100.00;102546.56;5111509;28;20015;-78
2022/01/20 01:32:57;;;;;;;17.38;3.13;;;;;;;6.13;100.00;102543.84;5108162;28;20042;-80
2022/01/20 01:35:24;;;;;;;23.20;3.42;;;;;;;6.12;100.00;102534.88;5110016;28;20078;-77
2022/01/20 01:40:34;;;;;;;31.77;4.30;;;;;;;6.25;100.00;102545.75;5099436;28;20093;-77
2022/01/20 01:43:11;;;;;;;20.42;4.00;;;;;;;6.13;100.00;102555.56;5089603;28;20012;-80
2022/01/20 01:45:40;;;;;;;25.92;3.97;;;;;;;6.23;100.00;102553.28;5074169;28;20020;-78
2022/01/20 01:48:06;;;;;;;24.77;5.25;;;;;;;6.07;100.00;102567.34;5088924;28;20067;-79
2022/01/20 01:50:32;;;;;;;22.00;4.35;;;;;;;6.31;100.00;102570.44;5088715;28;20483;-79
2022/01/20 01:53:01;;;;;;;25.52;4.47;;;;;;;6.10;100.00;102566.06;5086816;28;20026;-80
2022/01/20 01:55:26;;;;;;;20.63;3.95;;;;;;;6.33;100.00;102562.91;5088840;28;20031;-77
2022/01/20 01:57:52;;;;;;;26.48;5.03;;;;;;;6.17;100.00;102575.09;5071464;28;20340;-78
2022/01/20 02:00:18;;;;;;;28.30;4.72;;;;;;;6.20;100.00;102567.31;5091202;28;20362;-78
2022/01/20 02:02:44;;;;;;;26.17;4.30;;;;;;;6.40;100.00;102569.19;5089131;28;20085;-77
2022/01/20 02:05:13;;;;;;;27.98;4.53;;;;;;;6.20;100.00;102571.94;5092054;28;20495;-76
2022/01/20 02:20:55;;;;;;;27.25;4.78;;;;;;;6.14;100.00;102560.00;5108836;28;20532;-78
2022/01/20 02:23:21;;;;;;;24.77;3.88;;;;;;;6.16;100.00;102559.78;5089707;28;20040;-78
2022/01/20 02:25:48;;;;;;;26.10;4.50;;;;;;;6.24;100.00;102552.22;5107880;28;20095;-79
2022/01/20 02:28:13;;;;;;;28.25;4.20;;;;;;;6.20;100.00;102569.22;5109952;28;20047;-80
2022/01/20 02:30:44;;;;;;;22.02;4.70;;;;;;;6.27;100.00;102553.69;5108188;28;20088;-78
2022/01/20 02:33:19;;;;;;;32.08;4.38;;;;;;;6.38;100.00;102546.78;5094252;28;20044;-82
2022/01/20 02:35:53;;;;;;;20.10;4.32;;;;;;;6.36;100.00;102555.16;5089320;28;20034;-80
2022/01/20 02:46:33;;;;;;;21.58;3.60;;;;;;;6.22;100.00;102556.22;5110337;28;20141;-78
2022/01/20 02:49:00;;;;;;;18.27;2.80;;;;;;;6.25;100.00;102545.75;5089696;28;20143;-77
2022/01/20 02:51:26;;;;;;;15.73;3.33;;;;;;;6.17;100.00;102554.13;5096410;28;20442;-78
2022/01/20 02:53:52;;;;;;;27.13;3.70;;;;;;;6.12;100.00;102547.66;5105095;28;20472;-77
2022/01/20 02:56:17;;;;;;;21.23;3.97;;;;;;;6.07;100.00;102543.66;5095285;28;20403;-82
2022/01/20 02:58:44;;;;;;;28.33;4.40;;;;;;;6.20;100.00;102558.31;5085473;28;20031;-77
2022/01/20 03:01:10;;;;;;;26.00;3.90;;;;;;;6.29;100.00;102548.03;5079530;28;20031;-79
2022/01/20 03:03:35;;;;;;;31.10;4.38;;;;;;;6.00;100.00;102558.31;5101847;28;20024;-83
2022/01/20 03:06:04;;;;;;;25.20;4.35;;;;;;;5.84;100.00;102560.38;5067566;28;20376;-79
2022/01/20 03:08:30;;;;;;;21.13;3.90;;;;;;;5.75;100.00;102553.44;5090288;28;20024;-79
2022/01/20 03:10:56;;;;;;;18.98;3.38;;;;;;;5.61;100.00;102558.06;5099102;28;20028;-77
2022/01/20 03:13:21;;;;;;;18.25;3.88;;;;;;;5.53;100.00;102561.78;5094790;28;20026;-78
2022/01/20 03:15:48;;;;;;;16.13;3.47;;;;;;;5.67;100.00;102568.13;5096222;28;20110;-79
2022/01/20 03:18:14;;;;;;;17.48;3.70;;;;;;;5.86;100.00;102566.44;5072368;28;20020;-78
2022/01/20 03:20:40;;;;;;;19.45;3.22;;;;;;;5.76;100.00;102576.09;5118964;28;20015;-78
2022/01/20 03:23:06;;;;;;;21.63;3.88;;;;;;;5.69;100.00;102574.19;5116459;28;20027;-79
2022/01/20 03:25:31;;;;;;;18.88;3.88;;;;;;;5.72;100.00;102567.47;5120754;28;20019;-79
2022/01/20 03:27:57;;;;;;;21.38;3.45;;;;;;;5.74;100.00;102584.44;5129122;28;20042;-79
2022/01/20 03:30:24;;;;;;;14.43;2.65;;;;;;;4.93;100.00;102601.53;5128286;28;20075;-79
2022/01/20 03:32:50;;;;;;;20.75;3.53;;;;;;;4.68;100.00;102595.75;5101127;28;21059;-82
2022/01/20 03:35:16;;;;;;;11.88;2.38;;;;;;;4.61;100.00;102601.16;5089977;28;20093;-79
2022/01/20 03:37:41;;;;;;;14.15;2.30;;;;;;;4.64;100.00;102606.19;5098288;28;20031;-80
2022/01/20 03:40:08;;;;;;;11.88;2.33;;;;;;;4.55;100.00;102610.09;5073484;28;20031;-79
2022/01/20 03:42:33;;;;;;;14.25;2.25;;;;;;;4.60;100.00;102618.47;5091541;28;20020;-80
2022/01/20 03:44:59;;;;;;;14.35;2.10;;;;;;;4.82;100.00;102612.97;5100290;28;20479;-78
2022/01/20 03:47:25;;;;;;;14.18;2.72;;;;;;;4.66;100.00;102608.72;5074051;28;20466;-82
2022/01/20 03:50:06;;;;;;;13.95;2.30;;;;;;;4.74;100.00;102609.38;5084845;28;20104;-80
2022/01/20 03:52:32;;;;;;;17.90;3.22;;;;;;;4.83;100.00;102622.81;5093621;28;20116;-77
2022/01/20 03:54:57;;;;;;;14.73;2.28;;;;;;;4.95;100.00;102611.16;5092163;28;20453;-77
2022/01/20 03:57:23;;;;;;;12.52;2.15;;;;;;;5.07;100.00;102608.72;5075012;28;20039;-79
2022/01/20 03:59:50;;;;;;;15.25;2.67;;;;;;;4.99;100.00;102605.34;5096123;28;20454;-81
2022/01/20 04:02:15;;;;;;;14.00;2.28;;;;;;;5.09;100.00;102600.34;5073691;28;20541;-79
2022/01/20 04:04:41;;;;;;;12.30;2.28;;;;;;;5.10;100.00;102597.44;5090908;28;20028;-81
2022/01/20 04:07:06;;;;;;;15.52;2.50;;;;;;;5.24;100.00;102611.09;5091166;28;20490;-80
2022/01/20 04:09:32;;;;;;;20.70;3.40;;;;;;;4.92;100.00;102618.88;5084252;28;20558;-81
2022/01/20 04:11:58;;;;;;;13.52;2.90;;;;;;;4.85;100.00;102635.13;5096657;28;20063;-82
2022/01/20 04:14:25;;;;;;;17.48;3.53;;;;;;;4.71;100.00;102625.25;5068128;28;20035;-80
2022/01/20 04:19:26;;;;;;;17.08;3.40;;;;;;;4.87;100.00;102621.34;5095861;28;20063;-81
2022/01/20 04:21:53;;;;;;;15.27;2.60;;;;;;;4.93;100.00;102634.16;5100948;28;20043;-80
2022/01/20 04:24:18;;;;;;;17.52;3.33;;;;;;;4.96;100.00;102636.47;5084491;28;20516;-79
2022/01/20 04:26:46;;;;;;;18.00;3.00;;;;;;;5.10;100.00;102634.63;5085591;28;20047;-80
2022/01/20 04:29:12;;;;;;;22.00;3.97;;;;;;;5.08;100.00;102647.59;5090985;28;20491;-77
2022/01/20 04:31:39;;;;;;;13.77;3.33;;;;;;;5.14;100.00;102644.91;5094488;28;20028;-80
2022/01/20 04:34:06;;;;;;;27.85;5.10;;;;;;;5.01;100.00;102660.34;5099140;28;20031;-77
2022/01/20 04:36:36;;;;;;;35.90;6.25;;;;;;;4.32;100.00;102670.06;5085556;28;20062;-80
2022/01/20 04:39:04;;;;;;;29.02;5.00;;;;;;;4.20;100.00;102673.31;5093130;28;20039;-80
2022/01/20 04:41:30;;;;;;;29.23;5.20;;;;;;;4.08;100.00;102671.31;5079261;28;20028;-81
2022/01/20 04:43:57;;;;;;;24.05;5.13;;;;;;;4.24;100.00;102679.19;5104620;28;20115;-79
2022/01/20 04:59:37;;;;;;;39.70;5.65;;;;;;;4.44;100.00;102676.63;5099386;28;20027;-81
2022/01/20 05:02:03;;;;;;;30.85;5.35;;;;;;;4.64;100.00;102689.53;5093422;28;20047;-78
2022/01/20 05:04:28;;;;;;;41.85;6.60;;;;;;;4.56;100.00;102694.09;5091806;28;20032;-80
2022/01/20 05:06:57;;;;;;;28.70;5.35;;;;;;;4.71;100.00;102696.72;5060075;28;20024;-80
2022/01/20 05:09:23;;;;;;;37.72;6.30;;;;;;;4.87;100.00;102694.72;5107096;28;20122;-81
2022/01/20 05:12:15;;;;;;;27.23;5.50;;;;;;;4.97;100.00;102701.50;5103881;28;20111;-79
2022/01/20 05:14:36;;;;;;;22.30;4.15;;;;;;;5.15;100.00;102706.44;5085889;28;20114;-79
2022/01/20 05:17:02;;;;;;;24.40;4.32;;;;;;;5.23;100.00;102707.28;5090380;28;20461;-79
2022/01/20 05:19:29;;;;;;;24.95;4.65;;;;;;;5.11;100.00;102701.59;5075856;28;20051;-78
2022/01/20 05:21:56;;;;;;;29.02;4.43;;;;;;;5.02;100.00;102724.53;5101590;28;20473;-80
2022/01/20 05:24:22;;;;;;;22.48;4.70;;;;;;;4.98;100.00;102724.09;5099033;28;20055;-79
2022/01/20 05:26:50;;;;;;;19.33;3.33;;;;;;;5.09;100.00;102718.09;5089437;28;20016;-80
2022/01/20 05:29:16;;;;;;;19.70;4.20;;;;;;;5.16;100.00;102726.28;5071180;28;20051;-80
2022/01/20 05:31:42;;;;;;;26.02;4.43;;;;;;;5.28;100.00;102724.72;5071878;28;20024;-79
2022/01/20 05:34:07;;;;;;;19.88;2.92;;;;;;;5.38;100.00;102732.50;5088982;28;20031;-79
2022/01/20 05:36:33;;;;;;;19.67;4.13;;;;;;;5.14;100.00;102723.78;5057457;28;20051;-77
2022/01/20 05:38:59;;;;;;;16.45;3.75;;;;;;;5.12;100.00;102731.28;5106179;28;20401;-78
2022/01/20 05:41:25;;;;;;;18.38;3.28;;;;;;;5.09;100.00;102733.59;5072125;28;20020;-79
2022/01/20 05:43:51;;;;;;;21.40;3.95;;;;;;;5.11;100.00;102731.50;5105957;28;20538;-80
2022/01/20 05:46:18;;;;;;;15.15;3.90;;;;;;;5.02;100.00;102719.09;5071990;28;20566;-82
2022/01/20 05:48:47;;;;;;;18.60;3.78;;;;;;;4.91;100.00;102739.50;5085624;28;20119;-78
2022/01/20 05:51:36;;;;;;;19.17;3.78;;;;;;;4.86;100.00;102742.81;5101804;28;20432;-79
2022/01/20 05:54:06;;;;;;;24.98;4.10;;;;;;;4.83;100.00;102747.81;5091160;28;20385;-78
2022/01/20 05:56:31;;;;;;;16.50;3.53;;;;;;;4.78;100.00;102756.56;5089269;28;20024;-79
2022/01/20 05:58:59;;;;;;;22.48;4.00;;;;;;;4.77;100.00;102768.44;5080200;28;20036;-77
2022/01/20 06:01:25;;;;;;;23.80;4.72;;;;;;;4.46;100.00;102757.94;5102825;28;20028;-79
2022/01/20 06:03:51;;;;;;;25.92;4.82;;;;;;;4.46;100.00;102756.06;5106918;28;20030;-81
2022/01/20 06:06:16;;;;;;;18.08;3.40;;;;;;;4.45;100.00;102762.53;5090039;28;20032;-78
2022/01/20 06:08:42;;;;;;;14.32;3.65;;;;;;;4.35;100.00;102760.13;5090758;28;20439;-79
2022/01/20 06:11:09;;;;;;;10.10;2.60;;;;;;;4.48;100.00;102748.56;5083507;28;20085;-79
2022/01/20 06:13:34;;;;;;;11.82;2.47;;;;;;;4.50;100.00;102753.81;5076253;28;20534;-79
2022/01/20 06:16:03;;;;;;;16.38;2.90;;;;;;;4.69;100.00;102761.28;5105128;28;20027;-78
2022/01/20 06:18:29;;;;;;;15.73;3.03;;;;;;;4.65;100.00;102762.72;5100284;28;20123;-79
2022/01/20 06:20:57;;;;;;;8.98;1.65;;;;;;;4.57;100.00;102754.69;5104183;28;20106;-76
2022/01/20 06:23:22;;;;;;;8.90;2.08;;;;;;;4.52;100.00;102762.59;5089241;28;20296;-83
2022/01/20 06:25:48;;;;;;;9.02;2.10;;;;;;;4.61;100.00;102761.44;5107349;28;20027;-79
2022/01/20 06:28:15;;;;;;;10.70;2.22;;;;;;;4.74;100.00;102761.53;5078630;28;20044;-78
2022/01/20 06:30:40;;;;;;;15.13;3.05;;;;;;;4.60;100.00;102755.13;5096340;28;20031;-79
2022/01/20 06:33:07;;;;;;;14.90;2.72;;;;;;;4.83;100.00;102761.41;5076552;28;20397;-80
2022/01/20 06:35:37;;;;;;;11.98;2.20;;;;;;;4.75;100.00;102768.63;5098582;28;20031;-80
2022/01/20 06:38:21;;;;;;;13.68;2.90;;;;;;;4.65;100.00;102770.84;5096039;28;20032;-77
2022/01/20 06:40:48;;;;;;;14.68;2.33;;;;;;;4.67;100.00;102776.94;5094580;28;20026;-76
2022/01/20 06:43:14;;;;;;;11.57;2.60;;;;;;;4.79;100.00;102778.09;5075296;28;20348;-78
2022/01/20 06:45:39;;;;;;;12.38;2.83;;;;;;;4.66;100.00;102779.88;5082146;28;20042;-78
2022/01/20 06:48:05;;;;;;;10.52;1.80;;;;;;;4.82;100.00;102789.59;5105079;28;20020;-79
2022/01/20 06:50:31;;;;;;;14.70;3.13;;;;;;;4.73;100.00;102788.91;5101757;28;20046;-79
2022/01/20 06:52:56;;;;;;;15.63;3.33;;;;;;;4.72;100.00;102803.53;5084756;28;20449;-77
2022/01/20 06:55:22;;;;;;;15.88;3.00;;;;;;;4.66;100.00;102794.28;5085164;28;20028;-78
2022/01/20 06:57:48;;;;;;;13.27;2.15;;;;;;;4.76;100.00;102807.56;5105597;28;20032;-78
2022/01/20 07:00:16;;;;;;;15.40;2.53;;;;;;;4.57;100.00;102811.75;5098831;28;20092;-78
2022/01/20 07:02:43;;;;;;;10.70;1.80;;;;;;;4.69;100.00;102821.06;5100113;28;20054;-76
2022/01/20 07:05:10;;;;;;;10.80;3.03;;;;;;;4.68;100.00;102808.50;5102768;28;20035;-79
2022/01/20 07:07:36;;;;;;;10.93;2.45;;;;;;;4.70;100.00;102827.34;5093497;28;20027;-78
2022/01/20 07:10:03;;;;;;;15.73;2.92;;;;;;;4.67;100.00;102828.56;5069999;28;20030;-77
2022/01/20 07:12:29;;;;;;;12.60;2.45;;;;;;;4.73;100.00;102833.22;5071321;28;20058;-78
2022/01/20 07:14:54;;;;;;;21.20;3.33;;;;;;;4.59;100.00;102828.69;5086912;28;20059;-77
2022/01/20 07:17:20;;;;;;;14.40;2.63;;;;;;;4.59;100.00;102834.97;5093239;28;20506;-78
2022/01/20 07:19:46;;;;;;;17.90;3.30;;;;;;;4.74;100.00;102829.47;5084196;28;20028;-78
2022/01/20 07:22:11;;;;;;;15.95;3.13;;;;;;;4.70;100.00;102836.31;5080854;28;20032;-79
2022/01/20 07:24:37;;;;;;;17.88;2.97;;;;;;;4.66;100.00;102840.47;5103265;28;20150;-77
2022/01/20 07:27:05;;;;;;;20.67;3.40;;;;;;;4.66;100.00;102834.22;5095033;28;20034;-79
2022/01/20 07:29:31;;;;;;;17.33;2.75;;;;;;;4.35;100.00;102829.91;5099966;28;20424;-76
2022/01/20 07:32:03;;;;;;;14.00;2.63;;;;;;;4.17;100.00;102839.31;5072467;28;20103;-78
2022/01/20 07:34:30;;;;;;;12.13;2.28;;;;;;;4.26;100.00;102842.75;5094059;28;20083;-79
2022/01/20 07:36:55;;;;;;;16.88;2.97;;;;;;;4.51;100.00;102847.81;5080302;28;20451;-78
2022/01/20 07:39:22;;;;;;;21.35;3.08;;;;;;;4.41;100.00;102851.72;5083710;28;20040;-77
2022/01/20 07:41:47;;;;;;;16.50;3.50;;;;;;;4.44;100.00;102853.19;5093322;28;20024;-78
2022/01/20 07:44:14;;;;;;;16.40;2.97;;;;;;;4.26;100.00;102867.19;5102325;28;20082;-77
2022/01/20 07:46:40;;;;;;;21.13;4.47;;;;;;;4.24;100.00;102863.81;5096168;28;20020;-78
2022/01/20 07:49:09;;;;;;;16.02;3.85;;;;;;;4.34;100.00;102869.78;5065503;28;20331;-79
2022/01/20 07:51:35;;;;;;;27.83;4.85;;;;;;;4.26;100.00;102879.91;5050641;28;20089;-80
2022/01/20 07:54:01;;;;;;;21.02;3.38;;;;;;;4.44;100.00;102879.50;5097450;28;20024;-78
2022/01/20 07:56:26;;;;;;;21.90;3.35;;;;;;;4.40;100.00;102876.34;5095828;28;20028;-79
2022/01/20 07:58:52;;;;;;;14.63;3.00;;;;;;;4.55;100.00;102876.31;5078816;28;20032;-74
2022/01/20 08:01:17;;;;;;;17.05;3.25;;;;;;;4.63;100.00;102878.91;5082009;28;20035;-74
2022/01/20 08:03:42;;;;;;;16.40;3.53;;;;;;;4.56;100.00;102878.00;5076844;28;20036;-77
2022/01/20 08:06:27;;;;;;;14.07;3.00;;;;;;;4.70;100.00;102870.81;5094881;28;20449;-74
2022/01/20 08:08:52;;;;;;;17.67;3.92;;;;;;;4.70;100.00;102859.94;5089723;28;20028;-75
2022/01/20 08:11:20;;;;;;;15.90;2.90;;;;;;;4.72;100.00;102877.75;5085026;28;20028;-75
2022/01/20 08:13:45;;;;;;;16.58;3.45;;;;;;;4.90;100.00;102858.28;5081461;28;20177;-75
2022/01/20 08:16:13;;;;;;;19.35;3.35;;;;;;;5.02;100.00;102874.91;5095112;28;20499;-77
2022/01/20 08:18:39;;;;;;;20.88;3.28;;;;;;;4.96;100.00;102881.94;5100664;28;20404;-75
2022/01/20 08:21:23;;;;;;;19.70;3.60;;;;;;;4.88;100.00;102886.69;5097919;28;20043;-75
2022/01/20 08:23:48;;;;;;;15.88;3.30;;;;;;;5.00;100.00;102885.13;5100108;28;20027;-75
2022/01/20 08:26:14;;;;;;;16.92;3.13;;;;;;;5.09;100.00;102877.69;5093239;28;20476;-75
2022/01/20 08:28:39;;;;;;;19.90;3.70;;;;;;;4.98;100.00;102881.75;5080956;28;20699;-75
2022/01/20 08:31:06;;;;;;;15.20;3.42;;;;;;;5.00;100.00;102876.97;5091470;28;20138;-75
2022/01/20 08:33:31;;;;;;;18.08;4.00;;;;;;;4.89;100.00;102880.22;5059830;28;20032;-76
2022/01/20 08:35:57;;;;;;;15.20;2.75;;;;;;;4.91;100.00;102875.41;5056969;28;20024;-77
2022/01/20 08:38:22;;;;;;;16.10;3.35;;;;;;;4.84;100.00;102893.53;5081601;28;20055;-77
2022/01/20 08:40:49;;;;;;;18.92;3.92;;;;;;;4.76;100.00;102895.34;5104207;28;20032;-79
2022/01/20 08:43:14;;;;;;;16.70;3.45;;;;;;;4.85;100.00;102897.94;5100735;28;20057;-75
2022/01/20 08:45:43;;;;;;;23.27;3.75;;;;;;;4.70;100.00;102908.84;5101750;28;20031;-78
2022/01/20 08:48:12;;;;;;;16.13;3.55;;;;;;;4.77;100.00;102912.47;5101791;28;20035;-78
2022/01/20 08:50:38;;;;;;;18.58;2.75;;;;;;;4.94;100.00;102916.66;5096136;28;20032;-77
2022/01/20 08:53:04;;;;;;;12.20;2.63;;;;;;;4.73;100.00;102916.63;5098926;28;20035;-78
2022/01/20 08:55:29;;;;;;;17.13;3.22;;;;;;;4.68;100.00;102919.91;5099293;28;20027;-78
2022/01/20 08:57:58;;;;;;;17.55;3.17;;;;;;;4.54;100.00;102918.06;5101650;28;20473;-78
2022/01/20 09:00:30;;;;;;;13.65;2.60;;;;;;;4.55;100.00;102933.34;5082961;28;20340;-78
2022/01/20 09:02:55;;;;;;;18.25;3.28;;;;;;;4.79;100.00;102929.47;5099089;28;20024;-78
2022/01/20 09:05:21;;;;;;;15.25;3.17;;;;;;;4.99;100.00;102936.97;5083309;28;20436;-77
2022/01/20 09:07:46;;;;;;;18.35;3.28;;;;;;;4.99;100.00;102940.53;5080666;28;20057;-78
2022/01/20 09:10:20;;;;;;;18.55;3.20;;;;;;;4.92;100.00;102937.75;5066258;28;20551;-78
2022/01/20 09:15:33;;;;;;;15.57;3.92;;;;;;;4.94;100.00;102960.13;5086069;28;20028;-78
2022/01/20 09:18:05;;;;;;;16.95;3.33;;;;;;;4.73;100.00;102968.25;5054984;28;20066;-78
2022/01/20 09:20:34;;;;;;;16.95;3.47;;;;;;;4.69;100.00;102977.81;5084871;28;20020;-79
2022/01/20 09:23:00;;;;;;;13.57;3.10;;;;;;;4.72;100.00;102980.16;5083724;28;20043;-78
2022/01/20 09:25:26;;;;;;;17.42;3.50;;;;;;;4.86;100.00;102970.28;5091633;28;20028;-78
2022/01/20 09:27:55;;;;;;;16.42;4.07;;;;;;;4.92;100.00;102974.94;5103891;28;20031;-78
2022/01/20 09:30:22;;;;;;;15.20;2.78;;;;;;;5.14;100.00;102984.81;5087377;28;20135;-78
2022/01/20 09:33:02;;;;;;;21.90;4.53;;;;;;;5.09;100.00;102987.28;5091271;28;20034;-78
2022/01/20 09:35:33;;;;;;;16.00;3.60;;;;;;;4.97;100.00;102973.34;5086561;28;20032;-77
2022/01/20 09:38:01;;;;;;;19.77;3.40;;;;;;;4.94;100.00;102995.47;5082322;28;20028;-78
2022/01/20 09:40:29;;;;;;;17.02;3.65;;;;;;;4.70;100.00;102999.38;5097532;28;20034;-77
2022/01/20 09:42:54;;;;;;;19.63;3.33;;;;;;;4.68;100.00;102987.00;5093901;28;20031;-78
2022/01/20 09:45:20;;;;;;;18.42;4.10;;;;;;;4.36;100.00;102999.94;5089102;28;20024;-77
2022/01/20 09:47:46;;;;;;;22.52;3.72;;;;;;;4.46;100.00;103007.81;5085644;28;20223;-77
2022/01/20 09:50:19;;;;;;;19.05;3.63;;;;;;;4.75;100.00;102998.78;5072210;28;20119;-78
2022/01/20 09:52:46;;;;;;;13.63;3.10;;;;;;;4.63;100.00;103001.16;5096828;28;20023;-78
2022/01/20 09:55:11;;;;;;;20.02;3.80;;;;;;;4.42;100.00;103012.78;5103585;28;20042;-79
2022/01/20 09:57:37;;;;;;;22.20;3.22;;;;;;;4.63;100.00;103008.47;5105242;28;20031;-77
2022/01/20 10:00:09;;;;;;;15.48;2.80;;;;;;;4.37;100.00;103005.19;5104714;28;20027;-77
2022/01/20 10:02:35;;;;;;;13.60;3.33;;;;;;;4.38;100.00;103008.78;5084396;28;20024;-78
2022/01/20 10:05:01;;;;;;;13.27;2.30;;;;;;;4.69;100.00;103011.28;5090312;28;20024;-78
2022/01/20 10:07:35;;;;;;;16.33;2.60;;;;;;;4.92;100.00;103010.28;5101452;28;20035;-78
2022/01/20 10:10:01;;;;;;;12.27;3.03;;;;;;;5.07;100.00;103021.97;5105822;28;20016;-78
2022/01/20 10:12:30;;;;;;;17.42;3.70;;;;;;;4.93;100.00;103034.56;5093265;28;20020;-80
2022/01/20 10:14:57;;;;;;;16.38;3.08;;;;;;;4.88;100.00;103026.13;5084137;28;20028;-77
2022/01/20 10:17:27;;;;;;;19.77;3.17;;;;;;;5.07;100.00;103030.13;5097863;28;20139;-75
2022/01/20 10:19:54;;;;;;;15.18;3.00;;;;;;;5.11;100.00;103033.31;5089955;28;20028;-78
2022/01/20 10:22:23;;;;;;;16.15;2.80;;;;;;;5.28;100.00;103029.31;5063260;28;20091;-77
2022/01/20 10:25:11;;;;;;;13.05;2.95;;;;;;;5.20;100.00;103031.31;5100792;28;20031;-78
2022/01/20 10:27:53;;;;;;;12.80;2.78;;;;;;;5.39;100.00;103038.00;5099817;28;20043;-78
2022/01/20 10:30:25;;;;;;;13.98;2.75;;;;;;;5.48;100.00;103037.69;5106693;28;20093;-80
2022/01/20 10:32:55;;;;;;;14.63;2.25;;;;;;;5.62;100.00;103054.13;5072935;28;21602;-77
2022/01/20 10:35:27;;;;;;;18.05;3.42;;;;;;;5.58;100.00;103041.97;5081957;28;20486;-77
2022/01/20 10:38:09;;;;;;;;;;;;;;;5.42;100.00;103067.53;5086860;28;20028;-76
2022/01/20 10:40:51;;;;;;;14.98;2.53;;;;;;;5.39;100.00;103054.31;5083460;28;20120;-81
2022/01/20 10:43:25;;;;;;;17.88;3.25;;;;;;;5.59;100.00;103066.28;5084921;28;20435;-81
2022/01/20 10:46:06;;;;;;;26.25;3.97;;;;;;;5.65;100.00;103062.75;5063072;28;20020;-78
2022/01/20 10:48:32;;;;;;;16.15;3.25;;;;;;;5.66;100.00;103059.00;5082259;28;20478;-78
2022/01/20 10:50:58;;;;;;;17.50;3.45;;;;;;;5.38;100.00;103058.06;5101464;28;20085;-80
2022/01/20 10:53:25;;;;;;;22.92;4.03;;;;;;;5.44;100.00;103062.75;5102641;28;20024;-81
2022/01/20 10:55:51;;;;;;;18.92;3.67;;;;;;;5.36;100.00;103082.75;5102969;28;20027;-80
2022/01/20 10:58:27;;;;;;;24.17;4.05;;;;;;;5.33;100.00;103075.00;5104324;28;20035;-82
2022/01/20 11:00:54;;;;;;;16.75;3.42;;;;;;;5.36;100.00;103080.03;5093241;28;20059;-79
2022/01/20 11:03:23;;;;;;;19.55;3.42;;;;;;;5.35;100.00;103075.63;5066722;28;20110;-80
2022/01/20 11:05:51;;;;;;;21.50;3.53;;;;;;;5.68;100.00;103078.69;5093127;28;20465;-80
2022/01/20 11:08:18;;;;;;;16.30;2.85;;;;;;;5.70;100.00;103071.16;5083577;28;20038;-80
2022/01/20 11:10:44;;;;;;;17.83;3.30;;;;;;;5.15;100.00;103078.97;5101089;28;20096;-81
2022/01/20 11:13:14;;;;;;;15.23;3.25;;;;;;;4.82;100.00;103097.59;5088470;28;20047;-80
2022/01/20 11:15:41;;;;;;;20.25;3.30;;;;;;;5.17;100.00;103091.53;5081984;28;20314;-80
2022/01/20 11:18:09;;;;;;;22.00;3.55;;;;;;;4.83;100.00;103092.97;5095834;28;20271;-82
2022/01/20 11:20:54;;;;;;;20.20;2.83;;;;;;;4.88;100.00;103087.81;5098927;28;20064;-79
2022/01/20 11:23:19;;;;;;;19.23;3.42;;;;;;;4.90;100.00;103080.31;5098416;28;20062;-81
2022/01/20 11:25:45;;;;;;;22.25;4.25;;;;;;;4.91;100.00;103069.25;5105012;28;20537;-81
2022/01/20 11:28:16;;;;;;;17.80;3.35;;;;;;;4.97;100.00;103068.50;5102147;28;20472;-82
2022/01/20 11:30:55;;;;;;;14.32;2.45;;;;;;;5.26;100.00;103057.75;5102331;28;20031;-80
2022/01/20 11:33:33;;;;;;;19.35;3.10;;;;;;;5.22;100.00;103051.00;5103398;28;20097;-81
2022/01/20 11:35:59;;;;;;;16.17;2.97;;;;;;;5.30;100.00;103051.72;5098998;28;20026;-81
2022/01/20 11:38:45;;;;;;;17.98;3.72;;;;;;;5.34;100.00;103054.91;5074885;28;20032;-81
2022/01/20 11:41:14;;;;;;;23.38;4.05;;;;;;;5.29;100.00;103050.03;5100944;28;20043;-81
2022/01/20 11:43:48;;;;;;;15.93;3.13;;;;;;;5.37;100.00;103059.13;5096067;28;20096;-82
2022/01/20 11:46:19;;;;;;;15.15;3.40;;;;;;;5.19;100.00;103056.84;5083312;28;20418;-82
2022/01/20 11:49:06;;;;;;;18.10;3.33;;;;;;;5.67;100.00;103043.50;5085035;28;20020;-80
2022/01/20 11:51:58;;;;;;;15.98;2.92;;;;;;;5.24;100.00;103032.63;5097378;28;20027;-79
2022/01/20 11:54:38;;;;;;;19.67;3.37;;;;;;;5.51;100.00;103029.13;5100318;28;20039;-79
2022/01/20 11:57:03;;;;;;;20.30;3.38;;;;;;;5.06;100.00;103028.44;5101802;28;20054;-81
2022/01/20 11:59:45;;;;;;;20.42;4.03;;;;;;;4.88;100.00;103039.72;5103317;28;20058;-82
2022/01/20 12:02:42;;;;;;;15.00;2.78;;;;;;;4.83;100.00;103036.75;5090882;28;20136;-82
2022/01/20 12:05:19;;;;;;;18.52;3.67;;;;;;;4.79;100.00;103047.16;5094514;28;20043;-80
2022/01/20 12:07:45;;;;;;;12.05;2.00;;;;;;;4.79;100.00;103036.28;5098034;28;20043;-81
2022/01/20 12:10:24;;;;;;;15.18;3.00;;;;;;;5.14;100.00;103033.75;5102981;28;20438;-80
2022/01/20 12:12:49;;;;;;;14.27;2.45;;;;;;;5.05;100.00;103047.66;5101303;28;20547;-79
2022/01/20 12:15:22;;;;;;;14.15;2.40;;;;;;;5.18;100.00;103036.94;5096164;28;20028;-79
2022/01/20 12:17:55;;;;;;;17.98;3.22;;;;;;;5.03;100.00;103036.97;5095981;28;20024;-78
2022/01/20 12:20:22;;;;;;;15.60;3.03;;;;;;;5.27;100.00;103038.50;5084884;28;20028;-78
2022/01/20 12:22:48;;;;;;;16.35;2.53;;;;;;;5.35;100.00;103029.41;5077490;28;20153;-79
2022/01/20 12:25:19;;;;;;;16.00;3.30;;;;;;;5.12;100.00;103024.97;5065351;28;20482;-78
2022/01/20 12:27:45;;;;;;;13.60;2.88;;;;;;;5.44;100.00;103028.22;5085897;28;20505;-80
2022/01/20 12:30:18;;;;;;;9.40;2.55;;;;;;;5.28;100.00;103020.31;5088745;28;20202;-78
2022/01/20 12:32:55;;;;;;;14.75;3.05;;;;;;;5.15;100.00;103029.19;5090787;28;20036;-79
2022/01/20 12:35:21;;;;;;;14.52;2.50;;;;;;;5.37;100.00;103027.31;5091132;28;20024;-79
2022/01/20 12:37:46;;;;;;;16.83;3.33;;;;;;;5.28;100.00;103023.03;5057776;28;20028;-81
2022/01/20 12:40:22;;;;;;;13.60;2.60;;;;;;;5.39;100.00;103036.13;5090334;28;20039;-79